sensor_id;sensor_type;location;lat;lon;timestamp;temperature;humidity
10905;DHT22;5505;51.450;9.254;2023-05-07T00:02:35;12.60;99.90
10905;DHT22;5505;51.450;9.254;2023-05-07T00:05:22;12.60;99.90
10905;DHT22;5505;51.450;9.254;2023-05-07T00:08:09;12.50;99.90
10905;DHT22;5505;51.450;9.254;2023-05-07T00:10:56;12.50;99.90
10905;DHT22;5505;51.450;9.254;2023-05-07T00:13:43;13.80;99.90
10905;DHT22;5505;51.450;9.254;2023-05-07T00:16:30;12.50;99.90
10905;DHT22;5505;51.450;9.254;2023-05-07T00:19:18;13.20;99.90
10905;DHT22;5505;51.450;9.254;2023-05-07T00:22:05;12.50;99.90
10905;DHT22;5505;51.450;9.254;2023-05-07T00:24:52;13.80;99.90
10905;DHT22;5505;51.450;9.254;2023-05-07T00:27:38;12.40;99.90
10905;DHT22;5505;51.450;9.254;2023-05-07T00:30:25;12.50;99.90
10905;DHT22;5505;51.450;9.254;2023-05-07T00:33:12;12.40;99.90
10905;DHT22;5505;51.450;9.254;2023-05-07T00:36:00;14.10;99.90
10905;DHT22;5505;51.450;9.254;2023-05-07T00:38:47;12.30;99.90
10905;DHT22;5505;51.450;9.254;2023-05-07T00:41:34;12.30;99.90
10905;DHT22;5505;51.450;9.254;2023-05-07T00:44:21;12.30;99.90
10905;DHT22;5505;51.450;9.254;2023-05-07T00:47:07;12.20;99.90
10905;DHT22;5505;51.450;9.254;2023-05-07T00:49:54;12.20;99.90
10905;DHT22;5505;51.450;9.254;2023-05-07T00:52:43;12.10;99.90
10905;DHT22;5505;51.450;9.254;2023-05-07T00:55:29;12.50;99.90
10905;DHT22;5505;51.450;9.254;2023-05-07T00:58:16;12.10;99.90
10905;DHT22;5505;51.450;9.254;2023-05-07T01:01:03;12.10;99.90
10905;DHT22;5505;51.450;9.254;2023-05-07T01:03:50;12.00;99.90
10905;DHT22;5505;51.450;9.254;2023-05-07T01:06:37;11.90;99.90
10905;DHT22;5505;51.450;9.254;2023-05-07T01:09:26;11.90;99.90
10905;DHT22;5505;51.450;9.254;2023-05-07T01:12:13;12.00;99.90
10905;DHT22;5505;51.450;9.254;2023-05-07T01:15:00;12.00;99.90
10905;DHT22;5505;51.450;9.254;2023-05-07T01:17:47;11.90;99.90
10905;DHT22;5505;51.450;9.254;2023-05-07T01:20:34;11.90;99.90
10905;DHT22;5505;51.450;9.254;2023-05-07T01:23:22;13.40;99.90
10905;DHT22;5505;51.450;9.254;2023-05-07T01:26:09;11.90;99.90
10905;DHT22;5505;51.450;9.254;2023-05-07T01:28:56;11.90;99.90
10905;DHT22;5505;51.450;9.254;2023-05-07T01:31:44;11.90;99.90
10905;DHT22;5505;51.450;9.254;2023-05-07T01:34:32;11.80;99.90
10905;DHT22;5505;51.450;9.254;2023-05-07T01:37:21;11.80;99.90
10905;DHT22;5505;51.450;9.254;2023-05-07T01:40:10;11.80;99.90
10905;DHT22;5505;51.450;9.254;2023-05-07T01:42:57;11.70;99.90
10905;DHT22;5505;51.450;9.254;2023-05-07T01:45:45;11.70;99.90
10905;DHT22;5505;51.450;9.254;2023-05-07T01:48:32;11.60;99.90
10905;DHT22;5505;51.450;9.254;2023-05-07T01:51:20;11.60;99.90
10905;DHT22;5505;51.450;9.254;2023-05-07T01:54:07;11.60;99.90
10905;DHT22;5505;51.450;9.254;2023-05-07T01:56:57;12.40;99.90
10905;DHT22;5505;51.450;9.254;2023-05-07T01:59:44;12.10;99.90
10905;DHT22;5505;51.450;9.254;2023-05-07T02:02:31;11.50;99.90
10905;DHT22;5505;51.450;9.254;2023-05-07T02:05:17;11.60;99.90
10905;DHT22;5505;51.450;9.254;2023-05-07T02:08:04;11.50;99.90
10905;DHT22;5505;51.450;9.254;2023-05-07T02:10:51;11.50;99.90
10905;DHT22;5505;51.450;9.254;2023-05-07T02:13:41;11.50;99.90
10905;DHT22;5505;51.450;9.254;2023-05-07T02:16:28;11.60;99.90
10905;DHT22;5505;51.450;9.254;2023-05-07T02:19:14;13.10;99.90
10905;DHT22;5505;51.450;9.254;2023-05-07T02:22:01;11.50;99.90
10905;DHT22;5505;51.450;9.254;2023-05-07T02:24:48;11.40;99.90
10905;DHT22;5505;51.450;9.254;2023-05-07T02:27:35;12.10;99.90
10905;DHT22;5505;51.450;9.254;2023-05-07T02:30:24;11.50;99.90
10905;DHT22;5505;51.450;9.254;2023-05-07T02:33:11;11.40;99.90
10905;DHT22;5505;51.450;9.254;2023-05-07T02:36:06;11.40;99.90
10905;DHT22;5505;51.450;9.254;2023-05-07T02:38:54;11.30;99.90
10905;DHT22;5505;51.450;9.254;2023-05-07T02:41:40;11.30;99.90
10905;DHT22;5505;51.450;9.254;2023-05-07T02:44:27;11.30;99.90
10905;DHT22;5505;51.450;9.254;2023-05-07T02:47:18;11.50;99.90
10905;DHT22;5505;51.450;9.254;2023-05-07T02:50:06;11.20;99.90
10905;DHT22;5505;51.450;9.254;2023-05-07T02:52:53;11.20;99.90
10905;DHT22;5505;51.450;9.254;2023-05-07T02:55:40;11.20;99.90
10905;DHT22;5505;51.450;9.254;2023-05-07T02:58:27;11.20;99.90
10905;DHT22;5505;51.450;9.254;2023-05-07T03:01:14;11.20;99.90
10905;DHT22;5505;51.450;9.254;2023-05-07T03:04:02;11.20;99.90
10905;DHT22;5505;51.450;9.254;2023-05-07T03:06:49;11.20;99.90
10905;DHT22;5505;51.450;9.254;2023-05-07T03:09:36;11.10;99.90
10905;DHT22;5505;51.450;9.254;2023-05-07T03:12:22;11.10;99.90
10905;DHT22;5505;51.450;9.254;2023-05-07T03:15:10;11.10;99.90
10905;DHT22;5505;51.450;9.254;2023-05-07T03:17:57;11.00;99.90
10905;DHT22;5505;51.450;9.254;2023-05-07T03:20:46;11.00;99.90
10905;DHT22;5505;51.450;9.254;2023-05-07T03:23:32;11.00;99.90
10905;DHT22;5505;51.450;9.254;2023-05-07T03:26:19;11.00;99.90
10905;DHT22;5505;51.450;9.254;2023-05-07T03:29:06;11.10;99.90
10905;DHT22;5505;51.450;9.254;2023-05-07T03:31:53;11.00;99.90
10905;DHT22;5505;51.450;9.254;2023-05-07T03:34:40;11.00;99.90
10905;DHT22;5505;51.450;9.254;2023-05-07T03:37:28;11.00;99.90
10905;DHT22;5505;51.450;9.254;2023-05-07T03:40:15;11.00;99.90
10905;DHT22;5505;51.450;9.254;2023-05-07T03:43:02;10.90;99.90
10905;DHT22;5505;51.450;9.254;2023-05-07T03:45:49;10.90;99.90
10905;DHT22;5505;51.450;9.254;2023-05-07T03:48:35;10.90;99.90
10905;DHT22;5505;51.450;9.254;2023-05-07T03:51:22;10.80;99.90
10905;DHT22;5505;51.450;9.254;2023-05-07T03:54:10;10.80;99.90
10905;DHT22;5505;51.450;9.254;2023-05-07T03:56:57;10.80;99.90
10905;DHT22;5505;51.450;9.254;2023-05-07T03:59:44;10.80;99.90
10905;DHT22;5505;51.450;9.254;2023-05-07T04:02:31;10.80;99.90
10905;DHT22;5505;51.450;9.254;2023-05-07T04:05:17;10.70;99.90
10905;DHT22;5505;51.450;9.254;2023-05-07T04:08:04;10.70;99.90
10905;DHT22;5505;51.450;9.254;2023-05-07T04:10:56;10.60;99.90
10905;DHT22;5505;51.450;9.254;2023-05-07T04:13:42;10.60;99.90
10905;DHT22;5505;51.450;9.254;2023-05-07T04:16:29;10.60;99.90
10905;DHT22;5505;51.450;9.254;2023-05-07T04:19:16;10.90;99.90
10905;DHT22;5505;51.450;9.254;2023-05-07T04:22:02;10.60;99.90
10905;DHT22;5505;51.450;9.254;2023-05-07T04:24:49;12.10;99.90
10905;DHT22;5505;51.450;9.254;2023-05-07T04:27:38;10.50;99.90
10905;DHT22;5505;51.450;9.254;2023-05-07T04:30:25;8.90;99.90
10905;DHT22;5505;51.450;9.254;2023-05-07T04:33:13;10.40;99.90
10905;DHT22;5505;51.450;9.254;2023-05-07T04:36:01;10.40;99.90
10905;DHT22;5505;51.450;9.254;2023-05-07T04:38:49;10.30;99.90
10905;DHT22;5505;51.450;9.254;2023-05-07T04:41:36;10.30;99.90
10905;DHT22;5505;51.450;9.254;2023-05-07T04:44:24;10.40;99.90
10905;DHT22;5505;51.450;9.254;2023-05-07T04:47:11;10.40;99.90
10905;DHT22;5505;51.450;9.254;2023-05-07T04:49:58;10.30;99.90
10905;DHT22;5505;51.450;9.254;2023-05-07T04:52:44;10.30;99.90
10905;DHT22;5505;51.450;9.254;2023-05-07T04:55:31;10.30;99.90
10905;DHT22;5505;51.450;9.254;2023-05-07T04:58:18;10.40;99.90
10905;DHT22;5505;51.450;9.254;2023-05-07T05:01:06;10.30;99.90
10905;DHT22;5505;51.450;9.254;2023-05-07T05:03:53;10.30;99.90
10905;DHT22;5505;51.450;9.254;2023-05-07T05:06:40;10.30;99.90
10905;DHT22;5505;51.450;9.254;2023-05-07T05:09:27;10.40;99.90
10905;DHT22;5505;51.450;9.254;2023-05-07T05:12:13;10.40;99.90
10905;DHT22;5505;51.450;9.254;2023-05-07T05:15:01;9.40;99.90
10905;DHT22;5505;51.450;9.254;2023-05-07T05:17:49;10.40;99.90
10905;DHT22;5505;51.450;9.254;2023-05-07T05:20:35;10.50;99.90
10905;DHT22;5505;51.450;9.254;2023-05-07T05:23:22;10.50;99.90
10905;DHT22;5505;51.450;9.254;2023-05-07T05:26:09;10.50;99.90
10905;DHT22;5505;51.450;9.254;2023-05-07T05:28:56;10.50;99.90
10905;DHT22;5505;51.450;9.254;2023-05-07T05:31:42;10.50;99.90
10905;DHT22;5505;51.450;9.254;2023-05-07T05:34:30;10.40;99.90
10905;DHT22;5505;51.450;9.254;2023-05-07T05:37:18;10.50;99.90
10905;DHT22;5505;51.450;9.254;2023-05-07T05:40:06;10.60;99.90
10905;DHT22;5505;51.450;9.254;2023-05-07T05:42:53;10.50;99.90
10905;DHT22;5505;51.450;9.254;2023-05-07T05:45:40;10.50;99.90
10905;DHT22;5505;51.450;9.254;2023-05-07T05:48:26;10.50;99.90
10905;DHT22;5505;51.450;9.254;2023-05-07T05:51:14;10.60;99.90
10905;DHT22;5505;51.450;9.254;2023-05-07T05:54:01;10.50;99.90
10905;DHT22;5505;51.450;9.254;2023-05-07T05:56:48;10.50;99.90
10905;DHT22;5505;51.450;9.254;2023-05-07T05:59:35;10.50;99.90
10905;DHT22;5505;51.450;9.254;2023-05-07T06:02:22;11.20;99.90
10905;DHT22;5505;51.450;9.254;2023-05-07T06:05:09;10.50;99.90
10905;DHT22;5505;51.450;9.254;2023-05-07T06:07:57;10.50;99.90
10905;DHT22;5505;51.450;9.254;2023-05-07T06:10:44;10.50;99.90
10905;DHT22;5505;51.450;9.254;2023-05-07T06:13:30;10.60;99.90
10905;DHT22;5505;51.450;9.254;2023-05-07T06:16:18;10.50;99.90
10905;DHT22;5505;51.450;9.254;2023-05-07T06:19:05;10.50;99.90
10905;DHT22;5505;51.450;9.254;2023-05-07T06:21:51;10.70;99.90
10905;DHT22;5505;51.450;9.254;2023-05-07T06:24:40;10.80;99.90
10905;DHT22;5505;51.450;9.254;2023-05-07T06:27:26;10.90;99.90
10905;DHT22;5505;51.450;9.254;2023-05-07T06:30:14;10.90;99.90
10905;DHT22;5505;51.450;9.254;2023-05-07T06:33:00;10.90;99.90
10905;DHT22;5505;51.450;9.254;2023-05-07T06:35:47;11.60;99.90
10905;DHT22;5505;51.450;9.254;2023-05-07T06:38:34;11.10;99.90
10905;DHT22;5505;51.450;9.254;2023-05-07T06:41:22;11.10;99.90
10905;DHT22;5505;51.450;9.254;2023-05-07T06:44:09;11.90;99.90
10905;DHT22;5505;51.450;9.254;2023-05-07T06:46:56;11.10;99.90
10905;DHT22;5505;51.450;9.254;2023-05-07T06:49:43;11.00;99.90
10905;DHT22;5505;51.450;9.254;2023-05-07T06:52:33;11.00;99.90
10905;DHT22;5505;51.450;9.254;2023-05-07T06:55:19;11.10;99.90
10905;DHT22;5505;51.450;9.254;2023-05-07T06:58:08;11.10;99.90
10905;DHT22;5505;51.450;9.254;2023-05-07T07:00:54;11.20;99.90
10905;DHT22;5505;51.450;9.254;2023-05-07T07:03:41;11.20;99.90
10905;DHT22;5505;51.450;9.254;2023-05-07T07:06:28;11.30;99.90
10905;DHT22;5505;51.450;9.254;2023-05-07T07:09:17;11.30;99.90
10905;DHT22;5505;51.450;9.254;2023-05-07T07:12:04;11.30;99.90
10905;DHT22;5505;51.450;9.254;2023-05-07T07:14:52;11.30;99.90
10905;DHT22;5505;51.450;9.254;2023-05-07T07:17:38;11.40;99.90
10905;DHT22;5505;51.450;9.254;2023-05-07T07:20:25;11.40;99.90
10905;DHT22;5505;51.450;9.254;2023-05-07T07:23:12;13.50;99.90
10905;DHT22;5505;51.450;9.254;2023-05-07T07:25:59;11.50;99.90
10905;DHT22;5505;51.450;9.254;2023-05-07T07:28:46;11.50;99.90
10905;DHT22;5505;51.450;9.254;2023-05-07T07:31:34;11.50;99.90
10905;DHT22;5505;51.450;9.254;2023-05-07T07:34:20;11.50;99.90
10905;DHT22;5505;51.450;9.254;2023-05-07T07:37:07;11.60;99.90
10905;DHT22;5505;51.450;9.254;2023-05-07T07:39:55;11.70;99.90
10905;DHT22;5505;51.450;9.254;2023-05-07T07:42:42;11.90;99.90
10905;DHT22;5505;51.450;9.254;2023-05-07T07:45:28;12.80;99.90
10905;DHT22;5505;51.450;9.254;2023-05-07T07:48:16;12.00;99.90
10905;DHT22;5505;51.450;9.254;2023-05-07T07:51:03;12.10;99.90
10905;DHT22;5505;51.450;9.254;2023-05-07T07:53:51;12.10;99.90
10905;DHT22;5505;51.450;9.254;2023-05-07T07:56:38;12.10;99.90
10905;DHT22;5505;51.450;9.254;2023-05-07T07:59:25;12.20;99.90
10905;DHT22;5505;51.450;9.254;2023-05-07T08:02:12;12.20;99.90
10905;DHT22;5505;51.450;9.254;2023-05-07T08:05:00;12.30;99.90
10905;DHT22;5505;51.450;9.254;2023-05-07T08:07:47;12.40;99.90
10905;DHT22;5505;51.450;9.254;2023-05-07T08:10:37;12.50;99.90
10905;DHT22;5505;51.450;9.254;2023-05-07T08:13:24;12.80;99.90
10905;DHT22;5505;51.450;9.254;2023-05-07T08:16:11;12.50;99.90
10905;DHT22;5505;51.450;9.254;2023-05-07T08:18:58;12.50;99.90
10905;DHT22;5505;51.450;9.254;2023-05-07T08:21:46;12.70;99.90
10905;DHT22;5505;51.450;9.254;2023-05-07T08:24:34;14.00;99.90
10905;DHT22;5505;51.450;9.254;2023-05-07T08:27:21;12.80;99.90
10905;DHT22;5505;51.450;9.254;2023-05-07T08:30:08;13.00;99.90
10905;DHT22;5505;51.450;9.254;2023-05-07T08:32:55;13.10;99.90
10905;DHT22;5505;51.450;9.254;2023-05-07T08:35:42;13.10;99.90
10905;DHT22;5505;51.450;9.254;2023-05-07T08:38:31;13.10;99.90
10905;DHT22;5505;51.450;9.254;2023-05-07T08:41:18;13.30;99.90
10905;DHT22;5505;51.450;9.254;2023-05-07T08:44:06;13.40;99.90
10905;DHT22;5505;51.450;9.254;2023-05-07T08:46:58;13.40;99.90
10905;DHT22;5505;51.450;9.254;2023-05-07T08:49:46;13.20;99.90
10905;DHT22;5505;51.450;9.254;2023-05-07T08:52:33;13.60;99.90
10905;DHT22;5505;51.450;9.254;2023-05-07T08:55:23;13.10;99.90
10905;DHT22;5505;51.450;9.254;2023-05-07T08:58:10;13.10;99.90
10905;DHT22;5505;51.450;9.254;2023-05-07T09:00:57;13.10;99.90
10905;DHT22;5505;51.450;9.254;2023-05-07T09:03:45;13.10;99.90
10905;DHT22;5505;51.450;9.254;2023-05-07T09:06:32;13.10;99.90
10905;DHT22;5505;51.450;9.254;2023-05-07T09:09:21;13.20;99.90
10905;DHT22;5505;51.450;9.254;2023-05-07T09:12:10;13.30;99.90
10905;DHT22;5505;51.450;9.254;2023-05-07T09:14:56;13.70;99.90
10905;DHT22;5505;51.450;9.254;2023-05-07T09:17:43;13.60;99.90
10905;DHT22;5505;51.450;9.254;2023-05-07T09:20:30;13.50;99.90
10905;DHT22;5505;51.450;9.254;2023-05-07T09:23:18;13.60;99.90
10905;DHT22;5505;51.450;9.254;2023-05-07T09:26:05;15.20;99.90
10905;DHT22;5505;51.450;9.254;2023-05-07T09:28:58;13.70;99.90
10905;DHT22;5505;51.450;9.254;2023-05-07T09:31:45;13.70;99.90
10905;DHT22;5505;51.450;9.254;2023-05-07T09:34:32;13.80;99.90
10905;DHT22;5505;51.450;9.254;2023-05-07T09:37:18;14.70;99.90
10905;DHT22;5505;51.450;9.254;2023-05-07T09:40:07;13.90;99.90
10905;DHT22;5505;51.450;9.254;2023-05-07T09:42:54;13.90;99.90
10905;DHT22;5505;51.450;9.254;2023-05-07T09:45:43;13.70;99.90
10905;DHT22;5505;51.450;9.254;2023-05-07T09:48:30;13.70;99.90
10905;DHT22;5505;51.450;9.254;2023-05-07T09:51:22;13.70;99.90
10905;DHT22;5505;51.450;9.254;2023-05-07T09:54:11;13.80;99.90
10905;DHT22;5505;51.450;9.254;2023-05-07T09:56:59;13.80;99.90
10905;DHT22;5505;51.450;9.254;2023-05-07T09:59:49;14.00;99.90
10905;DHT22;5505;51.450;9.254;2023-05-07T10:02:39;14.10;99.90
10905;DHT22;5505;51.450;9.254;2023-05-07T10:05:32;14.10;99.90
10905;DHT22;5505;51.450;9.254;2023-05-07T10:08:19;14.20;99.90
10905;DHT22;5505;51.450;9.254;2023-05-07T10:11:06;14.20;99.90
10905;DHT22;5505;51.450;9.254;2023-05-07T10:13:54;15.40;99.90
10905;DHT22;5505;51.450;9.254;2023-05-07T10:16:41;14.20;99.90
10905;DHT22;5505;51.450;9.254;2023-05-07T10:19:29;15.10;99.90
10905;DHT22;5505;51.450;9.254;2023-05-07T10:22:18;14.50;99.90
10905;DHT22;5505;51.450;9.254;2023-05-07T10:25:11;14.50;99.90
10905;DHT22;5505;51.450;9.254;2023-05-07T10:28:04;14.30;99.90
10905;DHT22;5505;51.450;9.254;2023-05-07T10:30:58;14.30;99.90
10905;DHT22;5505;51.450;9.254;2023-05-07T10:33:51;14.30;99.90
10905;DHT22;5505;51.450;9.254;2023-05-07T10:36:40;14.30;99.90
10905;DHT22;5505;51.450;9.254;2023-05-07T10:39:27;14.20;99.90
10905;DHT22;5505;51.450;9.254;2023-05-07T10:42:15;14.20;99.90
10905;DHT22;5505;51.450;9.254;2023-05-07T10:45:12;14.30;99.90
10905;DHT22;5505;51.450;9.254;2023-05-07T10:48:10;14.30;99.90
10905;DHT22;5505;51.450;9.254;2023-05-07T10:51:19;14.50;99.90
10905;DHT22;5505;51.450;9.254;2023-05-07T10:54:21;14.70;99.90
10905;DHT22;5505;51.450;9.254;2023-05-07T10:57:33;14.70;99.90
10905;DHT22;5505;51.450;9.254;2023-05-07T11:00:41;14.80;99.90
10905;DHT22;5505;51.450;9.254;2023-05-07T11:03:28;14.70;99.90
10905;DHT22;5505;51.450;9.254;2023-05-07T11:06:16;14.70;99.90
10905;DHT22;5505;51.450;9.254;2023-05-07T11:09:03;14.80;99.90
10905;DHT22;5505;51.450;9.254;2023-05-07T11:11:51;14.80;99.90
10905;DHT22;5505;51.450;9.254;2023-05-07T11:14:44;15.00;99.90
10905;DHT22;5505;51.450;9.254;2023-05-07T11:17:31;15.10;99.90
10905;DHT22;5505;51.450;9.254;2023-05-07T11:20:20;15.10;99.90
10905;DHT22;5505;51.450;9.254;2023-05-07T11:23:06;15.10;99.90
10905;DHT22;5505;51.450;9.254;2023-05-07T11:25:58;15.10;99.90
10905;DHT22;5505;51.450;9.254;2023-05-07T11:28:47;15.20;99.90
10905;DHT22;5505;51.450;9.254;2023-05-07T11:31:34;15.50;99.90
10905;DHT22;5505;51.450;9.254;2023-05-07T11:34:22;15.50;99.90
10905;DHT22;5505;51.450;9.254;2023-05-07T11:37:09;15.60;99.90
10905;DHT22;5505;51.450;9.254;2023-05-07T11:40:06;15.50;99.90
10905;DHT22;5505;51.450;9.254;2023-05-07T11:42:53;15.60;99.90
10905;DHT22;5505;51.450;9.254;2023-05-07T11:45:41;15.60;99.90
10905;DHT22;5505;51.450;9.254;2023-05-07T11:48:28;15.60;99.90
10905;DHT22;5505;51.450;9.254;2023-05-07T11:51:18;15.80;99.90
10905;DHT22;5505;51.450;9.254;2023-05-07T11:54:06;15.80;99.90
10905;DHT22;5505;51.450;9.254;2023-05-07T11:56:56;15.70;99.90
10905;DHT22;5505;51.450;9.254;2023-05-07T11:59:44;15.60;99.90
10905;DHT22;5505;51.450;9.254;2023-05-07T12:02:34;16.10;99.90
10905;DHT22;5505;51.450;9.254;2023-05-07T12:05:21;15.60;99.90
10905;DHT22;5505;51.450;9.254;2023-05-07T12:08:07;15.50;99.90
10905;DHT22;5505;51.450;9.254;2023-05-07T12:10:54;15.50;99.90
10905;DHT22;5505;51.450;9.254;2023-05-07T12:13:41;15.60;99.90
10905;DHT22;5505;51.450;9.254;2023-05-07T12:16:29;15.70;99.90
10905;DHT22;5505;51.450;9.254;2023-05-07T12:19:17;15.60;99.90
10905;DHT22;5505;51.450;9.254;2023-05-07T12:22:05;15.50;99.90
10905;DHT22;5505;51.450;9.254;2023-05-07T12:24:57;15.40;99.90
10905;DHT22;5505;51.450;9.254;2023-05-07T12:27:44;16.00;99.90
10905;DHT22;5505;51.450;9.254;2023-05-07T12:30:38;15.50;99.90
10905;DHT22;5505;51.450;9.254;2023-05-07T12:33:26;17.30;99.90
10905;DHT22;5505;51.450;9.254;2023-05-07T12:36:15;15.90;99.90
10905;DHT22;5505;51.450;9.254;2023-05-07T12:39:03;15.90;99.90
10905;DHT22;5505;51.450;9.254;2023-05-07T12:41:54;15.90;99.90
10905;DHT22;5505;51.450;9.254;2023-05-07T12:44:41;15.90;99.90
10905;DHT22;5505;51.450;9.254;2023-05-07T12:47:30;16.00;99.90
10905;DHT22;5505;51.450;9.254;2023-05-07T12:50:17;15.90;99.90
10905;DHT22;5505;51.450;9.254;2023-05-07T12:53:09;15.90;99.90
10905;DHT22;5505;51.450;9.254;2023-05-07T12:55:58;16.00;99.90
10905;DHT22;5505;51.450;9.254;2023-05-07T12:58:45;15.70;99.90
10905;DHT22;5505;51.450;9.254;2023-05-07T13:01:34;15.70;99.90
10905;DHT22;5505;51.450;9.254;2023-05-07T13:04:20;15.70;99.90
10905;DHT22;5505;51.450;9.254;2023-05-07T13:07:10;15.80;99.90
10905;DHT22;5505;51.450;9.254;2023-05-07T13:09:58;15.90;99.90
10905;DHT22;5505;51.450;9.254;2023-05-07T13:12:45;16.00;99.90
10905;DHT22;5505;51.450;9.254;2023-05-07T13:15:32;16.00;99.90
10905;DHT22;5505;51.450;9.254;2023-05-07T13:18:18;16.20;99.90
10905;DHT22;5505;51.450;9.254;2023-05-07T13:21:05;16.10;99.90
10905;DHT22;5505;51.450;9.254;2023-05-07T13:23:52;15.80;99.90
10905;DHT22;5505;51.450;9.254;2023-05-07T13:26:40;15.50;99.90
10905;DHT22;5505;51.450;9.254;2023-05-07T13:29:27;15.40;99.90
10905;DHT22;5505;51.450;9.254;2023-05-07T13:32:15;15.60;99.90
10905;DHT22;5505;51.450;9.254;2023-05-07T13:35:02;15.60;99.90
10905;DHT22;5505;51.450;9.254;2023-05-07T13:37:50;15.60;99.90
10905;DHT22;5505;51.450;9.254;2023-05-07T13:40:39;15.60;99.90
10905;DHT22;5505;51.450;9.254;2023-05-07T13:43:27;15.70;99.90
10905;DHT22;5505;51.450;9.254;2023-05-07T13:46:14;15.80;99.90
10905;DHT22;5505;51.450;9.254;2023-05-07T13:49:01;15.90;99.90
10905;DHT22;5505;51.450;9.254;2023-05-07T13:51:48;14.30;99.90
10905;DHT22;5505;51.450;9.254;2023-05-07T13:54:35;16.10;99.90
10905;DHT22;5505;51.450;9.254;2023-05-07T13:57:22;16.10;99.90
10905;DHT22;5505;51.450;9.254;2023-05-07T14:00:11;16.20;99.90
10905;DHT22;5505;51.450;9.254;2023-05-07T14:02:58;16.30;99.90
10905;DHT22;5505;51.450;9.254;2023-05-07T14:05:45;16.20;99.90
10905;DHT22;5505;51.450;9.254;2023-05-07T14:08:31;16.20;99.90
10905;DHT22;5505;51.450;9.254;2023-05-07T14:11:18;16.10;99.90
10905;DHT22;5505;51.450;9.254;2023-05-07T14:14:06;15.90;99.90
10905;DHT22;5505;51.450;9.254;2023-05-07T14:16:54;16.00;99.90
10905;DHT22;5505;51.450;9.254;2023-05-07T14:19:40;16.00;99.90
10905;DHT22;5505;51.450;9.254;2023-05-07T14:22:27;16.10;99.90
10905;DHT22;5505;51.450;9.254;2023-05-07T14:25:14;16.10;99.90
10905;DHT22;5505;51.450;9.254;2023-05-07T14:28:01;16.10;99.90
10905;DHT22;5505;51.450;9.254;2023-05-07T14:30:48;16.20;99.90
10905;DHT22;5505;51.450;9.254;2023-05-07T14:33:36;16.20;99.90
10905;DHT22;5505;51.450;9.254;2023-05-07T14:36:26;16.30;99.90
10905;DHT22;5505;51.450;9.254;2023-05-07T14:39:13;16.30;99.90
10905;DHT22;5505;51.450;9.254;2023-05-07T14:42:00;16.30;99.90
10905;DHT22;5505;51.450;9.254;2023-05-07T14:44:47;16.20;99.90
10905;DHT22;5505;51.450;9.254;2023-05-07T14:47:33;16.30;99.90
10905;DHT22;5505;51.450;9.254;2023-05-07T14:50:22;16.30;99.90
10905;DHT22;5505;51.450;9.254;2023-05-07T14:53:08;16.30;99.90
10905;DHT22;5505;51.450;9.254;2023-05-07T14:55:55;17.00;99.90
10905;DHT22;5505;51.450;9.254;2023-05-07T14:58:42;16.20;99.90
10905;DHT22;5505;51.450;9.254;2023-05-07T15:01:29;16.10;99.90
10905;DHT22;5505;51.450;9.254;2023-05-07T15:04:16;16.00;99.90
10905;DHT22;5505;51.450;9.254;2023-05-07T15:07:04;15.80;99.90
10905;DHT22;5505;51.450;9.254;2023-05-07T15:09:51;15.80;99.90
10905;DHT22;5505;51.450;9.254;2023-05-07T15:12:38;15.70;99.90
10905;DHT22;5505;51.450;9.254;2023-05-07T15:15:24;15.70;99.90
10905;DHT22;5505;51.450;9.254;2023-05-07T15:18:11;15.60;99.90
10905;DHT22;5505;51.450;9.254;2023-05-07T15:20:58;15.50;99.90
10905;DHT22;5505;51.450;9.254;2023-05-07T15:23:47;15.50;99.90
10905;DHT22;5505;51.450;9.254;2023-05-07T15:26:33;15.50;99.90
10905;DHT22;5505;51.450;9.254;2023-05-07T15:29:21;15.50;99.90
10905;DHT22;5505;51.450;9.254;2023-05-07T15:32:07;15.60;99.90
10905;DHT22;5505;51.450;9.254;2023-05-07T15:34:54;15.60;99.90
10905;DHT22;5505;51.450;9.254;2023-05-07T15:37:41;15.40;99.90
10905;DHT22;5505;51.450;9.254;2023-05-07T15:40:29;15.30;99.90
10905;DHT22;5505;51.450;9.254;2023-05-07T15:43:16;15.10;99.90
10905;DHT22;5505;51.450;9.254;2023-05-07T15:46:03;15.00;99.90
10905;DHT22;5505;51.450;9.254;2023-05-07T15:48:51;14.90;99.90
10905;DHT22;5505;51.450;9.254;2023-05-07T15:51:38;14.80;99.90
10905;DHT22;5505;51.450;9.254;2023-05-07T15:54:25;14.80;99.90
10905;DHT22;5505;51.450;9.254;2023-05-07T15:57:13;14.80;99.90
10905;DHT22;5505;51.450;9.254;2023-05-07T16:00:00;14.70;99.90
10905;DHT22;5505;51.450;9.254;2023-05-07T16:02:48;14.80;99.90
10905;DHT22;5505;51.450;9.254;2023-05-07T16:05:34;14.70;99.90
10905;DHT22;5505;51.450;9.254;2023-05-07T16:08:22;14.70;99.90
10905;DHT22;5505;51.450;9.254;2023-05-07T16:11:09;14.70;99.90
10905;DHT22;5505;51.450;9.254;2023-05-07T16:13:57;14.60;99.90
10905;DHT22;5505;51.450;9.254;2023-05-07T16:16:45;14.70;99.90
10905;DHT22;5505;51.450;9.254;2023-05-07T16:19:31;14.60;99.90
10905;DHT22;5505;51.450;9.254;2023-05-07T16:22:18;14.60;99.90
10905;DHT22;5505;51.450;9.254;2023-05-07T16:25:07;14.50;99.90
10905;DHT22;5505;51.450;9.254;2023-05-07T16:27:54;14.40;99.90
10905;DHT22;5505;51.450;9.254;2023-05-07T16:30:42;14.40;99.90
10905;DHT22;5505;51.450;9.254;2023-05-07T16:33:29;14.30;99.90
10905;DHT22;5505;51.450;9.254;2023-05-07T16:36:16;14.20;99.90
10905;DHT22;5505;51.450;9.254;2023-05-07T16:39:03;14.30;99.90
10905;DHT22;5505;51.450;9.254;2023-05-07T16:41:51;14.30;99.90
10905;DHT22;5505;51.450;9.254;2023-05-07T16:44:37;14.20;99.90
10905;DHT22;5505;51.450;9.254;2023-05-07T16:47:26;14.20;99.90
10905;DHT22;5505;51.450;9.254;2023-05-07T16:50:14;14.20;99.90
10905;DHT22;5505;51.450;9.254;2023-05-07T16:53:01;14.20;99.90
10905;DHT22;5505;51.450;9.254;2023-05-07T16:55:47;14.10;99.90
10905;DHT22;5505;51.450;9.254;2023-05-07T16:58:34;14.10;99.90
10905;DHT22;5505;51.450;9.254;2023-05-07T17:01:21;14.00;99.90
10905;DHT22;5505;51.450;9.254;2023-05-07T17:04:09;14.00;99.90
10905;DHT22;5505;51.450;9.254;2023-05-07T17:06:56;14.00;99.90
10905;DHT22;5505;51.450;9.254;2023-05-07T17:09:42;14.00;99.90
10905;DHT22;5505;51.450;9.254;2023-05-07T17:12:29;13.90;99.90
10905;DHT22;5505;51.450;9.254;2023-05-07T17:15:17;13.90;99.90
10905;DHT22;5505;51.450;9.254;2023-05-07T17:18:04;13.90;99.90
10905;DHT22;5505;51.450;9.254;2023-05-07T17:20:52;13.90;99.90
10905;DHT22;5505;51.450;9.254;2023-05-07T17:23:39;13.80;99.90
10905;DHT22;5505;51.450;9.254;2023-05-07T17:26:26;13.80;99.90
10905;DHT22;5505;51.450;9.254;2023-05-07T17:29:13;13.70;99.90
10905;DHT22;5505;51.450;9.254;2023-05-07T17:32:00;13.70;99.90
10905;DHT22;5505;51.450;9.254;2023-05-07T17:34:46;13.70;99.90
10905;DHT22;5505;51.450;9.254;2023-05-07T17:37:34;13.60;99.90
10905;DHT22;5505;51.450;9.254;2023-05-07T17:40:21;13.60;99.90
10905;DHT22;5505;51.450;9.254;2023-05-07T17:43:08;13.50;99.90
10905;DHT22;5505;51.450;9.254;2023-05-07T17:45:55;13.50;99.90
10905;DHT22;5505;51.450;9.254;2023-05-07T17:48:42;13.40;99.90
10905;DHT22;5505;51.450;9.254;2023-05-07T17:51:28;13.40;99.90
10905;DHT22;5505;51.450;9.254;2023-05-07T17:54:16;13.30;99.90
10905;DHT22;5505;51.450;9.254;2023-05-07T17:57:03;13.30;99.90
10905;DHT22;5505;51.450;9.254;2023-05-07T17:59:50;13.30;99.90